createdAt,value
2018-11-29T00:01:02.992Z,101003.73
2018-11-29T00:03:31.212Z,101009.17
2018-11-29T00:05:59.465Z,101008.49
2018-11-29T00:08:27.747Z,101013.12
2018-11-29T00:10:55.966Z,101015.39
2018-11-29T00:13:24.286Z,101005.96
2018-11-29T00:15:52.543Z,101006.93
2018-11-29T00:18:20.864Z,101003.68
2018-11-29T00:20:49.099Z,100999.98
2018-11-29T00:23:17.302Z,101006.28
2018-11-29T00:25:45.518Z,101003.41
2018-11-29T00:28:13.760Z,101000.53
2018-11-29T00:30:42.025Z,100996.37
2018-11-29T00:33:10.325Z,101006.37
2018-11-29T00:35:38.543Z,101009.23
2018-11-29T00:38:06.818Z,101013.37
2018-11-29T00:40:35.028Z,101013.48
2018-11-29T00:43:03.272Z,101014.31
2018-11-29T00:45:31.579Z,101015.00
2018-11-29T00:47:59.828Z,101007.84
2018-11-29T00:50:28.157Z,101011.29
2018-11-29T00:52:56.428Z,101015.12
2018-11-29T00:55:24.693Z,101014.97
2018-11-29T00:57:53.294Z,101014.38
2018-11-29T01:00:23.234Z,101005.87
2018-11-29T01:02:51.512Z,101002.76
2018-11-29T01:05:19.804Z,100999.19
2018-11-29T01:07:48.099Z,100999.30
2018-11-29T01:10:17.686Z,100997.39
2018-11-29T01:12:46.431Z,100997.14
2018-11-29T01:15:15.618Z,101008.47
2018-11-29T01:17:44.590Z,101003.44
2018-11-29T01:20:13.784Z,101000.33
2018-11-29T01:22:42.047Z,101002.47
2018-11-29T01:25:11.303Z,101003.64
2018-11-29T01:27:39.799Z,101013.88
2018-11-29T01:30:10.574Z,101011.26
2018-11-29T01:32:38.849Z,101010.66
2018-11-29T01:35:07.963Z,101009.69
2018-11-29T01:37:36.196Z,101008.03
2018-11-29T01:40:04.719Z,101007.55
2018-11-29T01:42:32.979Z,101004.32
2018-11-29T01:45:01.196Z,101006.31
2018-11-29T01:47:29.596Z,100998.66
2018-11-29T01:49:57.947Z,100996.18
2018-11-29T01:52:26.145Z,100987.67
2018-11-29T01:54:54.383Z,100987.89
2018-11-29T01:57:22.647Z,100985.98
2018-11-29T01:59:50.945Z,100991.23
2018-11-29T02:02:19.151Z,100983.20
2018-11-29T02:04:47.481Z,100977.95
2018-11-29T02:07:15.727Z,100972.09
2018-11-29T02:09:43.993Z,100979.00
2018-11-29T02:12:12.307Z,100977.09
2018-11-29T02:14:40.582Z,100981.85
2018-11-29T02:17:08.797Z,100991.73
2018-11-29T02:19:37.160Z,100989.47
2018-11-29T02:22:05.665Z,100987.18
2018-11-29T02:24:33.991Z,100990.98
2018-11-29T02:27:02.213Z,100985.95
2018-11-29T02:29:30.414Z,100989.77
2018-11-29T02:31:58.660Z,100987.14
2018-11-29T02:34:26.902Z,100980.58
2018-11-29T02:36:55.093Z,100980.42
2018-11-29T02:39:23.353Z,100973.86
2018-11-29T02:41:51.561Z,100970.75
2018-11-29T02:44:19.925Z,100974.69
2018-11-29T02:46:48.181Z,100981.25
2018-11-29T02:49:16.474Z,100973.86
2018-11-29T02:51:44.714Z,100969.77
2018-11-29T02:54:13.002Z,100973.38
2018-11-29T02:56:41.259Z,100979.11
2018-11-29T02:59:09.553Z,100970.41
2018-11-29T03:01:37.848Z,100974.01
2018-11-29T03:04:06.429Z,100967.29
2018-11-29T03:06:34.657Z,100977.66
2018-11-29T03:09:02.885Z,100975.88
2018-11-29T03:11:31.137Z,100977.66
2018-11-29T03:13:59.980Z,100969.99
2018-11-29T03:16:28.257Z,100973.59
2018-11-29T03:18:56.484Z,100971.45
2018-11-29T03:21:24.749Z,100979.67
2018-11-29T03:23:53.021Z,100972.50
2018-11-29T03:26:21.293Z,100967.25
2018-11-29T03:28:49.591Z,100971.53
2018-11-29T03:31:18.771Z,100972.02
2018-11-29T03:33:47.058Z,100967.59
2018-11-29T03:36:15.261Z,100970.55
2018-11-29T03:38:43.508Z,100966.98
2018-11-29T03:41:11.802Z,100974.23
2018-11-29T03:43:40.162Z,100971.97
2018-11-29T03:46:08.435Z,100963.72
2018-11-29T03:48:36.668Z,100961.91
2018-11-29T03:51:05.339Z,100961.23
2018-11-29T03:53:33.613Z,100967.66
2018-11-29T03:56:01.879Z,100964.91
2018-11-29T03:58:30.081Z,100965.40
2018-11-29T04:00:58.357Z,100960.97
2018-11-29T04:03:26.585Z,100967.54
2018-11-29T04:05:54.833Z,100963.23
2018-11-29T04:08:23.076Z,100966.56
2018-11-29T04:10:51.621Z,100967.05
2018-11-29T04:13:19.902Z,100967.05
2018-11-29T04:15:48.176Z,100961.64
2018-11-29T04:18:16.441Z,100959.23
2018-11-29T04:20:44.730Z,100957.44
2018-11-29T04:23:12.987Z,100948.24
2018-11-29T04:25:41.225Z,100952.18
2018-11-29T04:28:09.465Z,100954.69
2018-11-29T04:30:37.748Z,100948.95
2018-11-29T04:33:05.980Z,100951.42
2018-11-29T04:35:34.251Z,100952.73
2018-11-29T04:38:02.493Z,100952.63
2018-11-29T04:40:30.827Z,100954.55
2018-11-29T04:42:59.069Z,100950.48
2018-11-29T04:45:36.230Z,100943.42
2018-11-29T04:48:09.870Z,100944.73
2018-11-29T04:50:32.818Z,100940.42
2018-11-29T04:53:01.087Z,100935.32
2018-11-29T04:55:29.402Z,100933.52
2018-11-29T04:57:57.766Z,100931.86
2018-11-29T05:00:26.149Z,100936.75
2018-11-29T05:02:54.369Z,100932.63
2018-11-29T05:05:22.616Z,100929.63
2018-11-29T05:07:50.873Z,100923.91
2018-11-29T05:10:19.081Z,100925.23
2018-11-29T05:12:47.873Z,100923.05
2018-11-29T05:15:16.181Z,100924.25
2018-11-29T05:17:44.503Z,100918.84
2018-11-29T05:20:12.749Z,100923.98
2018-11-29T05:22:41.018Z,100913.95
2018-11-29T05:25:09.536Z,100918.95
2018-11-29T05:27:37.933Z,100910.76
2018-11-29T05:30:11.020Z,100905.66
2018-11-29T05:32:39.365Z,100899.41
2018-11-29T05:35:09.321Z,100893.89
2018-11-29T05:37:37.573Z,100897.83
2018-11-29T05:40:07.868Z,100896.52
2018-11-29T05:42:36.164Z,100895.08
2018-11-29T05:45:04.612Z,100904.13
2018-11-29T05:47:32.925Z,100890.66
2018-11-29T05:50:01.125Z,100898.38
2018-11-29T05:52:29.342Z,100893.00
2018-11-29T05:54:57.553Z,100888.58
2018-11-29T05:57:25.809Z,100891.20
2018-11-29T05:59:54.054Z,100886.28
2018-11-29T06:02:22.352Z,100888.91
2018-11-29T06:04:50.544Z,100889.61
2018-11-29T06:07:18.795Z,100879.44
2018-11-29T06:09:47.091Z,100889.13
2018-11-29T06:12:15.358Z,100887.20
2018-11-29T06:14:43.628Z,100887.32
2018-11-29T06:17:11.893Z,100894.72
2018-11-29T06:19:40.099Z,100896.41
2018-11-29T06:22:08.349Z,100894.23
2018-11-29T06:24:36.661Z,100902.00
2018-11-29T06:27:04.887Z,100881.64
2018-11-29T06:29:33.143Z,100885.25
2018-11-29T06:32:01.421Z,100888.70
2018-11-29T06:34:29.653Z,100887.87
2018-11-29T06:36:57.963Z,100886.07
2018-11-29T06:39:26.211Z,100893.84
2018-11-29T06:41:54.421Z,100882.67
2018-11-29T06:44:22.671Z,100877.91
2018-11-29T06:46:50.925Z,100876.92
2018-11-29T06:49:19.169Z,100872.71
2018-11-29T06:51:47.489Z,100872.25
2018-11-29T06:54:15.760Z,100878.13
2018-11-29T06:56:43.989Z,100872.53
2018-11-29T06:59:12.207Z,100875.16
2018-11-29T07:01:40.436Z,100877.30
2018-11-29T07:04:08.655Z,100869.13
2018-11-29T07:06:36.925Z,100871.48
2018-11-29T07:09:07.877Z,100867.87
2018-11-29T07:11:36.085Z,100866.56
2018-11-29T07:14:04.369Z,100862.62
2018-11-29T07:16:32.606Z,100862.62
2018-11-29T07:19:00.905Z,100860.32
2018-11-29T07:21:44.352Z,100865.45
2018-11-29T07:24:12.591Z,100855.27
2018-11-29T07:26:40.823Z,100857.30
2018-11-29T07:29:09.078Z,100848.55
2018-11-29T07:31:37.394Z,100844.97
2018-11-29T07:34:05.899Z,100845.64
2018-11-29T07:36:34.144Z,100847.16
2018-11-29T07:39:02.465Z,100841.78
2018-11-29T07:41:30.711Z,100842.94
2018-11-29T07:43:59.023Z,100843.77
2018-11-29T07:46:27.252Z,100839.70
2018-11-29T07:48:55.552Z,100834.61
2018-11-29T07:51:23.790Z,100836.63
2018-11-29T07:53:52.096Z,100830.88
2018-11-29T07:56:20.305Z,100833.02
2018-11-29T07:58:51.537Z,100829.28
2018-11-29T08:01:16.806Z,100827.34
2018-11-29T08:03:45.031Z,100836.40
2018-11-29T08:06:13.290Z,100824.89
2018-11-29T08:08:41.583Z,100822.63
2018-11-29T08:11:09.801Z,100820.82
2018-11-29T08:13:38.146Z,100823.50
2018-11-29T08:16:07.108Z,100821.08
2018-11-29T08:18:35.539Z,100819.97
2018-11-29T08:21:03.887Z,100827.91
2018-11-29T08:23:32.142Z,100819.38
2018-11-29T08:26:00.406Z,100820.69
2018-11-29T08:28:28.660Z,100812.02
2018-11-29T08:30:56.898Z,100809.75
2018-11-29T08:33:25.148Z,100806.83
2018-11-29T08:35:53.438Z,100815.39
2018-11-29T08:38:21.682Z,100814.27
2018-11-29T08:40:49.975Z,100818.42
2018-11-29T08:43:18.228Z,100816.13
2018-11-29T08:45:46.449Z,100820.28
2018-11-29T08:48:14.723Z,100812.87
2018-11-29T08:50:42.952Z,100813.08
2018-11-29T08:53:11.215Z,100809.34
2018-11-29T08:55:39.506Z,100801.15
2018-11-29T08:58:07.774Z,100787.08
2018-11-29T09:00:36.086Z,100795.21
2018-11-29T09:03:04.322Z,100792.13
2018-11-29T09:05:34.088Z,100796.61
2018-11-29T09:08:00.897Z,100792.70
2018-11-29T09:10:31.750Z,100798.86
2018-11-29T09:12:57.425Z,100797.05
2018-11-29T09:15:25.679Z,100794.58
2018-11-29T09:17:53.897Z,100800.05
2018-11-29T09:20:22.606Z,100800.58
2018-11-29T09:22:51.011Z,100810.98
2018-11-29T09:25:23.015Z,100815.76
2018-11-29T09:27:51.414Z,100818.09
2018-11-29T09:30:21.208Z,100819.94
2018-11-29T09:32:50.547Z,100822.08
2018-11-29T09:35:18.743Z,100817.80
2018-11-29T09:37:47.103Z,100819.45
2018-11-29T09:40:16.265Z,100819.25
2018-11-29T09:42:44.732Z,100816.98
2018-11-29T09:45:14.211Z,100818.46
2018-11-29T09:47:42.836Z,100813.55
2018-11-29T09:50:13.200Z,100820.17
2018-11-29T09:52:41.658Z,100817.08
2018-11-29T09:55:12.769Z,100822.05
2018-11-29T09:57:41.212Z,100819.62
2018-11-29T10:00:28.178Z,100819.32
2018-11-29T10:03:12.109Z,100811.64
2018-11-29T10:05:41.428Z,100808.57
2018-11-29T10:08:12.069Z,100806.98
2018-11-29T10:10:39.106Z,100803.74
2018-11-29T10:13:07.337Z,100802.81
2018-11-29T10:15:35.610Z,100794.59
2018-11-29T10:18:03.957Z,100794.95
2018-11-29T10:20:32.414Z,100792.83
2018-11-29T10:23:00.693Z,100787.25
2018-11-29T10:25:28.913Z,100788.08
2018-11-29T10:28:00.926Z,100791.23
2018-11-29T10:30:31.125Z,100789.75
2018-11-29T10:32:59.447Z,100781.78
2018-11-29T10:35:27.675Z,100783.10
2018-11-29T10:37:56.014Z,100774.05
2018-11-29T10:40:24.349Z,100780.96
2018-11-29T10:42:53.386Z,100771.41
2018-11-29T10:45:21.747Z,100757.72
2018-11-29T10:47:52.835Z,100746.35
2018-11-29T10:50:20.654Z,100742.56
2018-11-29T10:52:48.881Z,100740.45
2018-11-29T10:55:18.141Z,100727.58
2018-11-29T10:57:46.438Z,100725.44
2018-11-29T11:01:23.943Z,100730.36
2018-11-29T11:03:52.257Z,100709.43
2018-11-29T11:06:20.554Z,100703.84
2018-11-29T11:08:48.844Z,100689.03
2018-11-29T11:11:17.050Z,100682.13
2018-11-29T11:13:45.269Z,100689.22
2018-11-29T11:16:13.554Z,100702.23
2018-11-29T11:18:41.818Z,100710.15
2018-11-29T11:21:10.091Z,100703.23
2018-11-29T11:23:38.296Z,100689.73
2018-11-29T11:26:06.528Z,100675.38
2018-11-29T11:28:34.853Z,100664.19
2018-11-29T11:31:03.676Z,100653.97
2018-11-29T11:33:32.002Z,100639.15
2018-11-29T11:36:00.234Z,100627.95
2018-11-29T11:38:29.153Z,100630.28
2018-11-29T11:40:57.452Z,100625.33
2018-11-29T11:43:25.689Z,100638.70
2018-11-29T11:45:54.000Z,100632.28
2018-11-29T11:48:22.368Z,100628.00
2018-11-29T11:50:50.636Z,100631.18
2018-11-29T11:53:18.921Z,100628.05
2018-11-29T11:55:53.382Z,100631.69
2018-11-29T11:58:15.440Z,100664.50
2018-11-29T12:00:43.742Z,100687.75
2018-11-29T12:03:15.321Z,100686.29
2018-11-29T12:05:43.689Z,100673.91
2018-11-29T12:08:12.001Z,100672.42
2018-11-29T12:10:41.467Z,100666.82
2018-11-29T12:13:09.741Z,100666.99
2018-11-29T12:15:38.451Z,100664.00
2018-11-29T12:18:10.527Z,100650.98
2018-11-29T12:20:38.967Z,100647.02
2018-11-29T12:23:08.041Z,100637.89
2018-11-29T12:25:36.280Z,100627.83
2018-11-29T12:28:04.526Z,100630.64
2018-11-29T12:30:36.687Z,100625.69
2018-11-29T12:33:06.513Z,100619.91
2018-11-29T12:35:34.768Z,100616.13
2018-11-29T12:38:03.000Z,100615.28
2018-11-29T12:40:31.337Z,100609.36
2018-11-29T12:42:59.552Z,100607.86
2018-11-29T12:45:27.788Z,100579.47
2018-11-29T12:47:56.005Z,100553.09
2018-11-29T12:50:25.482Z,100524.06
2018-11-29T12:52:53.727Z,100513.65
2018-11-29T12:55:23.200Z,100517.24
2018-11-29T13:00:21.149Z,100503.00
2018-11-29T13:02:50.432Z,100494.59
2018-11-29T13:03:02.510Z,100502.38
2018-11-29T13:05:18.697Z,100482.54
2018-11-29T13:07:46.925Z,100473.63
2018-11-29T13:10:17.319Z,100459.31
2018-11-29T13:12:45.629Z,100454.86
2018-11-29T13:15:16.277Z,100439.22
2018-11-29T13:17:44.757Z,100428.00
2018-11-29T13:20:14.177Z,100408.24
2018-11-29T13:22:42.505Z,100414.19
2018-11-29T13:25:12.066Z,100410.41
2018-11-29T13:27:41.210Z,100401.34
2018-11-29T13:30:11.128Z,100404.64
2018-11-29T13:32:39.366Z,100404.29
2018-11-29T13:35:12.931Z,100440.22
2018-11-29T13:37:41.185Z,100429.68
2018-11-29T13:40:11.024Z,100448.13
2018-11-29T13:42:39.358Z,100509.25
2018-11-29T13:45:09.247Z,100536.88
2018-11-29T13:47:38.148Z,100538.87
2018-11-29T13:50:09.373Z,100526.83
2018-11-29T13:52:37.613Z,100519.94
2018-11-29T13:55:06.953Z,100517.48
2018-11-29T13:57:35.237Z,100499.85
2018-11-29T14:00:03.493Z,100499.84
2018-11-29T14:02:31.743Z,100493.25
2018-11-29T14:05:00.052Z,100491.75
2018-11-29T14:07:28.362Z,100494.89
2018-11-29T14:09:56.560Z,100506.06
2018-11-29T14:12:24.884Z,100493.57
2018-11-29T14:14:53.146Z,100495.21
2018-11-29T14:17:21.483Z,100477.08
2018-11-29T14:19:49.718Z,100493.38
2018-11-29T14:22:17.929Z,100489.61
2018-11-29T14:24:46.196Z,100468.02
2018-11-29T14:27:14.448Z,100444.45
2018-11-29T14:29:42.815Z,100429.30
2018-11-29T14:32:11.287Z,100424.50
2018-11-29T14:34:39.384Z,100419.23
2018-11-29T14:37:07.625Z,100409.69
2018-11-29T14:39:35.857Z,100444.94
2018-11-29T14:42:04.108Z,100436.85
2018-11-29T14:44:32.435Z,100413.64
2018-11-29T14:47:00.660Z,100383.84
2018-11-29T14:49:28.930Z,100351.22
2018-11-29T14:51:57.200Z,100345.77
2018-11-29T14:54:25.489Z,100310.38
2018-11-29T14:56:53.773Z,100354.84
2018-11-29T14:59:22.028Z,100364.53
2018-11-29T15:01:50.324Z,100396.64
2018-11-29T15:04:18.599Z,100369.98
2018-11-29T15:06:46.855Z,100352.85
2018-11-29T15:09:15.085Z,100352.86
2018-11-29T15:11:43.364Z,100348.41
2018-11-29T15:14:11.631Z,100342.95
2018-11-29T15:16:40.199Z,100350.72
2018-11-29T15:19:08.481Z,100345.77
2018-11-29T15:21:36.748Z,100333.42
2018-11-29T15:24:05.097Z,100333.92
2018-11-29T15:26:33.324Z,100332.45
2018-11-29T15:29:01.661Z,100333.92
2018-11-29T15:31:29.920Z,100340.00
2018-11-29T15:33:58.193Z,100340.82
2018-11-29T15:36:26.419Z,100327.66
2018-11-29T15:38:54.669Z,100319.92
2018-11-29T15:41:22.924Z,100334.73
2018-11-29T15:43:51.165Z,100359.77
2018-11-29T15:46:19.368Z,100362.75
2018-11-29T15:48:47.688Z,100373.61
2018-11-29T15:51:15.936Z,100373.94
2018-11-29T15:53:44.197Z,100373.30
2018-11-29T15:56:12.449Z,100368.98
2018-11-29T15:58:40.757Z,100362.08
2018-11-29T16:01:09.057Z,100359.94
2018-11-29T16:03:37.315Z,100370.48
2018-11-29T16:06:05.707Z,100380.02
2018-11-29T16:08:33.922Z,100364.22
2018-11-29T16:11:02.251Z,100365.53
2018-11-29T16:13:30.499Z,100366.89
2018-11-29T16:15:58.709Z,100359.30
2018-11-29T16:18:26.970Z,100366.70
2018-11-29T16:20:55.268Z,100361.62
2018-11-29T16:23:23.510Z,100371.84
2018-11-29T16:25:52.891Z,100380.56
2018-11-29T16:28:21.106Z,100385.02
2018-11-29T16:30:52.845Z,100403.42
2018-11-29T16:33:24.725Z,100384.84
2018-11-29T16:35:52.935Z,100389.61
2018-11-29T16:38:21.175Z,100382.20
2018-11-29T16:40:49.445Z,100373.48
2018-11-29T16:43:17.699Z,100375.44
2018-11-29T16:45:45.923Z,100379.06
2018-11-29T16:48:14.271Z,100392.55
2018-11-29T16:50:42.560Z,100383.48
2018-11-29T16:53:10.827Z,100384.47
2018-11-29T16:55:39.293Z,100371.30
2018-11-29T16:58:10.125Z,100381.83
2018-11-29T17:00:38.381Z,100379.65
2018-11-29T17:03:06.645Z,100373.19
2018-11-29T17:05:34.917Z,100372.86
2018-11-29T17:08:03.442Z,100382.38
2018-11-29T17:10:31.763Z,100395.53
2018-11-29T17:13:01.596Z,100392.03
2018-11-29T17:15:29.940Z,100378.05
2018-11-29T17:17:58.201Z,100382.67
2018-11-29T17:20:26.467Z,100377.91
2018-11-29T17:22:54.741Z,100392.03
2018-11-29T17:25:23.036Z,100390.22
2018-11-29T17:27:51.273Z,100385.14
2018-11-29T17:30:20.619Z,100386.14
2018-11-29T17:32:49.672Z,100386.14
2018-11-29T17:35:18.001Z,100388.64
2018-11-29T17:37:47.053Z,100394.41
2018-11-29T17:40:20.407Z,100390.78
2018-11-29T17:42:48.662Z,100394.42
2018-11-29T17:45:20.299Z,100393.25
2018-11-29T17:47:48.984Z,100396.87
2018-11-29T17:50:19.712Z,100385.34
2018-11-29T17:52:47.956Z,100396.36
2018-11-29T17:55:16.172Z,100394.22
2018-11-29T17:57:44.417Z,100381.38
2018-11-29T18:00:15.597Z,100384.19
2018-11-29T18:02:44.003Z,100381.06
2018-11-29T18:05:12.241Z,100382.20
2018-11-29T18:07:40.490Z,100374.16
2018-11-29T18:10:16.881Z,100364.45
2018-11-29T18:12:46.007Z,100360.83
2018-11-29T18:15:18.673Z,100366.77
2018-11-29T18:17:46.905Z,100368.55
2018-11-29T18:20:15.217Z,100367.23
2018-11-29T18:22:43.481Z,100377.76
2018-11-29T18:25:12.957Z,100383.70
2018-11-29T18:27:42.787Z,100397.67
2018-11-29T18:30:14.840Z,100392.22
2018-11-29T18:32:43.076Z,100394.34
2018-11-29T18:35:12.018Z,100395.83
2018-11-29T18:37:40.415Z,100402.72
2018-11-29T18:40:15.769Z,100406.99
2018-11-29T18:42:44.288Z,100412.26
2018-11-29T18:45:14.692Z,100414.89
2018-11-29T18:47:43.646Z,100418.02
2018-11-29T18:50:13.365Z,100426.87
2018-11-29T18:52:41.642Z,100429.35
2018-11-29T18:55:10.336Z,100441.20
2018-11-29T18:57:38.575Z,100437.39
2018-11-29T19:00:10.995Z,100420.77
2018-11-29T19:02:39.245Z,100424.72
2018-11-29T19:05:08.233Z,100417.32
2018-11-29T19:07:36.571Z,100419.11
2018-11-29T19:10:08.070Z,100410.13
2018-11-29T19:12:36.391Z,100410.77
2018-11-29T19:15:05.761Z,100404.64
2018-11-29T19:17:34.011Z,100401.66
2018-11-29T19:20:02.251Z,100402.95
2018-11-29T19:22:30.551Z,100406.72
2018-11-29T19:24:58.876Z,100400.27
2018-11-29T19:27:27.088Z,100389.92
2018-11-29T19:29:55.394Z,100387.48
2018-11-29T19:32:23.687Z,100394.27
2018-11-29T19:34:51.928Z,100391.98
2018-11-29T19:37:20.194Z,100399.43
2018-11-29T19:39:48.431Z,100388.25
2018-11-29T19:42:16.755Z,100391.09
2018-11-29T19:44:44.923Z,100389.52
2018-11-29T19:47:13.224Z,100381.30
2018-11-29T19:49:41.500Z,100372.91
2018-11-29T19:52:09.797Z,100380.99
2018-11-29T19:54:38.076Z,100381.34
2018-11-29T19:57:06.542Z,100389.25
2018-11-29T19:59:34.850Z,100387.25
2018-11-29T20:02:03.087Z,100394.82
2018-11-29T20:04:31.379Z,100387.23
2018-11-29T20:06:59.662Z,100390.31
2018-11-29T20:09:27.900Z,100397.84
2018-11-29T20:11:56.226Z,100390.89
2018-11-29T20:14:24.467Z,100394.81
2018-11-29T20:16:52.743Z,100384.59
2018-11-29T20:19:20.982Z,100386.91
2018-11-29T20:21:49.303Z,100377.70
2018-11-29T20:24:17.548Z,100381.66
2018-11-29T20:26:45.820Z,100380.34
2018-11-29T20:29:14.166Z,100379.71
2018-11-29T20:31:42.377Z,100384.80
2018-11-29T20:34:10.669Z,100377.91
2018-11-29T20:36:38.919Z,100377.42
2018-11-29T20:39:09.177Z,100385.00
2018-11-29T20:41:37.467Z,100392.91
2018-11-29T20:44:05.852Z,100392.91
2018-11-29T20:46:34.159Z,100395.20
2018-11-29T20:49:02.396Z,100397.84
2018-11-29T20:51:30.630Z,100396.74
2018-11-29T20:53:58.959Z,100397.06
2018-11-29T20:56:27.193Z,100397.75
2018-11-29T20:58:55.459Z,100402.66
2018-11-29T21:01:23.808Z,100391.17
2018-11-29T21:03:52.072Z,100394.45
2018-11-29T21:06:20.336Z,100391.19
2018-11-29T21:08:48.613Z,100394.84
2018-11-29T21:11:16.888Z,100393.70
2018-11-29T21:13:45.199Z,100398.98
2018-11-29T21:16:13.453Z,100400.81
2018-11-29T21:18:41.690Z,100390.77
2018-11-29T21:21:09.980Z,100392.24
2018-11-29T21:23:38.205Z,100390.47
2018-11-29T21:26:06.713Z,100390.47
2018-11-29T21:28:35.078Z,100393.10
2018-11-29T21:31:03.352Z,100400.34
2018-11-29T21:33:31.593Z,100399.37
2018-11-29T21:35:59.967Z,100393.75
2018-11-29T21:38:28.233Z,100388.98
2018-11-29T21:40:59.197Z,100405.45
2018-11-29T21:43:27.480Z,100394.73
2018-11-29T21:45:55.745Z,100393.56
2018-11-29T21:48:23.981Z,100396.86
2018-11-29T21:50:52.217Z,100401.80
2018-11-29T21:53:20.568Z,100407.39
2018-11-29T21:55:48.824Z,100395.55
2018-11-29T21:58:17.046Z,100407.22
2018-11-29T22:00:45.300Z,100418.93
2018-11-29T22:03:13.536Z,100417.10
2018-11-29T22:05:41.769Z,100422.37
2018-11-29T22:08:09.994Z,100421.86
2018-11-29T22:10:38.210Z,100420.70
2018-11-29T22:13:06.442Z,100425.50
2018-11-29T22:15:34.727Z,100421.36
2018-11-29T22:18:19.945Z,100416.92
2018-11-29T22:20:50.558Z,100412.97
2018-11-29T22:23:18.822Z,100421.50
2018-11-29T22:25:47.029Z,100413.28
2018-11-29T22:28:15.265Z,100407.52
2018-11-29T22:30:43.538Z,100411.66
2018-11-29T22:33:11.793Z,100417.24
2018-11-29T22:35:40.107Z,100415.29
2018-11-29T22:38:08.661Z,100417.42
2018-11-29T22:40:37.003Z,100418.57
2018-11-29T22:43:05.309Z,100411.36
2018-11-29T22:45:33.624Z,100417.80
2018-11-29T22:48:01.881Z,100403.45
2018-11-29T22:50:30.129Z,100402.46
2018-11-29T22:52:58.434Z,100396.73
2018-11-29T22:55:26.658Z,100398.38
2018-11-29T22:57:54.894Z,100398.69
2018-11-29T23:00:23.143Z,100396.23
2018-11-29T23:02:51.428Z,100396.56
2018-11-29T23:05:19.701Z,100405.60
2018-11-29T23:07:47.889Z,100403.97
2018-11-29T23:10:16.141Z,100404.16
2018-11-29T23:12:44.375Z,100401.84
2018-11-29T23:15:12.944Z,100400.39
2018-11-29T23:17:41.168Z,100407.30
2018-11-29T23:20:11.572Z,100400.22
2018-11-29T23:22:40.386Z,100408.78
2018-11-29T23:25:13.200Z,100401.20
2018-11-29T23:27:41.538Z,100398.75
2018-11-29T23:30:14.614Z,100399.21
2018-11-29T23:32:43.078Z,100397.43
2018-11-29T23:35:12.151Z,100396.11
2018-11-29T23:37:40.433Z,100389.53
2018-11-29T23:40:11.198Z,100384.41
2018-11-29T23:42:39.537Z,100385.89
2018-11-29T23:45:09.349Z,100379.31
2018-11-29T23:47:37.709Z,100380.63
2018-11-29T23:50:14.689Z,100376.00
2018-11-29T23:52:42.984Z,100386.53
2018-11-29T23:55:14.422Z,100387.34
2018-11-29T23:57:42.687Z,100389.66
